sensor_id;sensor_type;location;lat;lon;timestamp;pressure;altitude;pressure_sealevel;temperature;humidity
66021;BME280;52789;59.980;30.346;2022-11-20T00:27:25;102005.56;;;-4.65;89.12
66021;BME280;52789;59.980;30.346;2022-11-20T00:29:54;102008.13;;;-4.62;88.14
66021;BME280;52789;59.980;30.346;2022-11-20T01:02:05;101940.88;;;-4.78;87.95
66021;BME280;52789;59.980;30.346;2022-11-20T01:04:33;101970.00;;;-4.62;88.13
66021;BME280;52789;59.980;30.346;2022-11-20T01:06:58;101973.38;;;-4.58;87.88
66021;BME280;52789;59.980;30.346;2022-11-20T01:09:24;101974.25;;;-4.59;88.08
66021;BME280;52789;59.980;30.346;2022-11-20T01:53:00;101900.25;;;-4.80;87.91
66021;BME280;52789;59.980;30.346;2022-11-20T01:55:33;101949.13;;;-4.59;87.75
66021;BME280;52789;59.980;30.346;2022-11-20T01:58:00;101944.56;;;-4.51;87.60
66021;BME280;52789;59.980;30.346;2022-11-20T02:00:28;101945.41;;;-4.50;87.62
66021;BME280;52789;59.980;30.346;2022-11-20T02:02:59;101937.03;;;-4.61;87.60
66021;BME280;52789;59.980;30.346;2022-11-20T02:07:55;101907.03;;;-4.75;87.18
66021;BME280;52789;59.980;30.346;2022-11-20T02:10:22;101935.34;;;-4.62;87.70
66021;BME280;52789;59.980;30.346;2022-11-20T02:12:48;101931.91;;;-4.64;87.78
66021;BME280;52789;59.980;30.346;2022-11-20T02:15:33;101934.31;;;-4.57;87.66
66021;BME280;52789;59.980;30.346;2022-11-20T02:17:59;101931.84;;;-4.61;87.10
66021;BME280;52789;59.980;30.346;2022-11-20T02:20:25;101940.47;;;-4.59;87.66
66021;BME280;52789;59.980;30.346;2022-11-20T02:23:08;101932.50;;;-4.53;87.52
66021;BME280;52789;59.980;30.346;2022-11-20T02:25:36;101933.25;;;-4.48;87.31
66021;BME280;52789;59.980;30.346;2022-11-20T02:28:03;101931.44;;;-4.46;86.74
66021;BME280;52789;59.980;30.346;2022-11-20T02:30:30;101912.81;;;-4.63;87.65
66021;BME280;52789;59.980;30.346;2022-11-20T02:32:55;101923.88;;;-4.55;87.65
66021;BME280;52789;59.980;30.346;2022-11-20T02:35:46;101928.28;;;-4.57;88.04
66021;BME280;52789;59.980;30.346;2022-11-20T02:38:13;101923.88;;;-4.55;87.41
66021;BME280;52789;59.980;30.346;2022-11-20T02:40:39;101912.69;;;-4.57;87.36
66021;BME280;52789;59.980;30.346;2022-11-20T02:43:05;101917.72;;;-4.51;87.06
66021;BME280;52789;59.980;30.346;2022-11-20T02:45:30;101924.47;;;-4.44;86.93
66021;BME280;52789;59.980;30.346;2022-11-20T02:47:56;101913.25;;;-4.46;87.45
66021;BME280;52789;59.980;30.346;2022-11-20T02:50:22;101914.75;;;-4.38;87.30
66021;BME280;52789;59.980;30.346;2022-11-20T02:52:48;101917.31;;;-4.36;86.99
66021;BME280;52789;59.980;30.346;2022-11-20T02:55:13;101919.00;;;-4.33;86.66
66021;BME280;52789;59.980;30.346;2022-11-20T02:57:39;101919.19;;;-4.41;86.41
66021;BME280;52789;59.980;30.346;2022-11-20T03:00:05;101906.34;;;-4.47;87.30
66021;BME280;52789;59.980;30.346;2022-11-20T03:02:32;101900.41;;;-4.52;87.09
66021;BME280;52789;59.980;30.346;2022-11-20T03:04:58;101916.69;;;-4.46;87.77
66021;BME280;52789;59.980;30.346;2022-11-20T03:07:46;101916.63;;;-4.43;87.33
66021;BME280;52789;59.980;30.346;2022-11-20T03:10:11;101902.84;;;-4.46;87.22
66021;BME280;52789;59.980;30.346;2022-11-20T03:12:38;101907.03;;;-4.41;87.30
66021;BME280;52789;59.980;30.346;2022-11-20T03:15:22;101909.59;;;-4.39;87.39
66021;BME280;52789;59.980;30.346;2022-11-20T03:17:48;101906.22;;;-4.43;87.10
66021;BME280;52789;59.980;30.346;2022-11-20T03:20:13;101908.16;;;-4.51;87.41
66021;BME280;52789;59.980;30.346;2022-11-20T03:22:39;101895.13;;;-4.49;87.41
66021;BME280;52789;59.980;30.346;2022-11-20T03:25:05;101917.38;;;-4.39;86.92
66021;BME280;52789;59.980;30.346;2022-11-20T03:27:34;101860.16;;;-4.72;86.72
66021;BME280;52789;59.980;30.346;2022-11-20T03:30:00;101895.94;;;-4.47;87.42
66021;BME280;52789;59.980;30.346;2022-11-20T03:32:26;101903.66;;;-4.44;86.99
66021;BME280;52789;59.980;30.346;2022-11-20T03:34:51;101912.47;;;-4.50;86.53
66021;BME280;52789;59.980;30.346;2022-11-20T03:37:17;101909.16;;;-4.55;87.25
66021;BME280;52789;59.980;30.346;2022-11-20T03:39:42;101910.97;;;-4.58;87.55
66021;BME280;52789;59.980;30.346;2022-11-20T03:42:09;101898.97;;;-4.64;87.91
66021;BME280;52789;59.980;30.346;2022-11-20T03:44:54;101905.84;;;-4.63;87.99
66021;BME280;52789;59.980;30.346;2022-11-20T03:47:20;101914.59;;;-4.65;87.92
66021;BME280;52789;59.980;30.346;2022-11-20T03:49:46;101912.88;;;-4.67;88.56
66021;BME280;52789;59.980;30.346;2022-11-20T03:55:43;101917.25;;;-4.69;88.43
66021;BME280;52789;59.980;30.346;2022-11-20T03:58:08;101905.91;;;-4.64;88.66
66021;BME280;52789;59.980;30.346;2022-11-20T04:00:34;101896.41;;;-4.65;88.85
66021;BME280;52789;59.980;30.346;2022-11-20T04:03:02;101894.56;;;-4.60;88.29
66021;BME280;52789;59.980;30.346;2022-11-20T04:05:27;101894.44;;;-4.56;88.08
66021;BME280;52789;59.980;30.346;2022-11-20T04:07:53;101896.09;;;-4.53;88.02
66021;BME280;52789;59.980;30.346;2022-11-20T04:10:19;101895.06;;;-4.46;88.72
66021;BME280;52789;59.980;30.346;2022-11-20T04:12:45;101905.19;;;-4.37;87.88
66021;BME280;52789;59.980;30.346;2022-11-20T04:15:10;101901.56;;;-4.30;88.02
66021;BME280;52789;59.980;30.346;2022-11-20T04:17:36;101893.59;;;-4.24;86.92
66021;BME280;52789;59.980;30.346;2022-11-20T04:20:03;101889.53;;;-4.34;86.69
66021;BME280;52789;59.980;30.346;2022-11-20T04:22:29;101892.41;;;-4.45;86.75
66021;BME280;52789;59.980;30.346;2022-11-20T04:24:54;101902.13;;;-4.51;87.31
66021;BME280;52789;59.980;30.346;2022-11-20T04:27:20;101884.91;;;-4.55;87.75
66021;BME280;52789;59.980;30.346;2022-11-20T04:29:46;101887.50;;;-4.55;87.17
66021;BME280;52789;59.980;30.346;2022-11-20T04:32:11;101890.19;;;-4.58;87.71
66021;BME280;52789;59.980;30.346;2022-11-20T04:34:37;101871.50;;;-4.74;87.48
66021;BME280;52789;59.980;30.346;2022-11-20T04:56:43;101876.69;;;-4.74;90.77
66021;BME280;52789;59.980;30.346;2022-11-20T04:59:09;101879.38;;;-4.77;91.29
66021;BME280;52789;59.980;30.346;2022-11-20T05:01:35;101871.78;;;-4.85;91.66
66021;BME280;52789;59.980;30.346;2022-11-20T05:04:00;101870.19;;;-4.92;92.21
66021;BME280;52789;59.980;30.346;2022-11-20T05:06:26;101879.59;;;-4.86;92.71
66021;BME280;52789;59.980;30.346;2022-11-20T05:08:51;101873.69;;;-4.91;92.51
66021;BME280;52789;59.980;30.346;2022-11-20T05:11:19;101871.94;;;-4.91;92.14
66021;BME280;52789;59.980;30.346;2022-11-20T05:13:45;101879.56;;;-4.85;92.40
66021;BME280;52789;59.980;30.346;2022-11-20T05:16:13;101891.50;;;-4.78;91.95
66021;BME280;52789;59.980;30.346;2022-11-20T05:18:39;101886.50;;;-4.85;92.15
66021;BME280;52789;59.980;30.346;2022-11-20T05:21:05;101877.31;;;-5.00;93.25
66021;BME280;52789;59.980;30.346;2022-11-20T05:23:32;101890.13;;;-4.91;93.50
66021;BME280;52789;59.980;30.346;2022-11-20T05:25:58;101887.63;;;-4.97;93.25
66021;BME280;52789;59.980;30.346;2022-11-20T05:28:24;101888.25;;;-4.86;92.64
66021;BME280;52789;59.980;30.346;2022-11-20T05:30:53;101881.28;;;-4.84;91.92
66021;BME280;52789;59.980;30.346;2022-11-20T05:33:19;101883.78;;;-4.81;91.55
66021;BME280;52789;59.980;30.346;2022-11-20T05:35:45;101887.38;;;-4.85;91.47
66021;BME280;52789;59.980;30.346;2022-11-20T05:38:11;101880.59;;;-4.92;91.20
66021;BME280;52789;59.980;30.346;2022-11-20T05:40:37;101892.63;;;-4.88;90.89
66021;BME280;52789;59.980;30.346;2022-11-20T05:43:02;101884.16;;;-4.96;90.96
66021;BME280;52789;59.980;30.346;2022-11-20T05:45:28;101879.72;;;-4.91;91.32
66021;BME280;52789;59.980;30.346;2022-11-20T05:47:58;101895.16;;;-4.85;90.11
66021;BME280;52789;59.980;30.346;2022-11-20T05:50:24;101888.34;;;-4.89;89.16
66021;BME280;52789;59.980;30.346;2022-11-20T05:52:49;101827.03;;;-5.33;89.72
66021;BME280;52789;59.980;30.346;2022-11-20T05:55:15;101887.53;;;-4.91;89.04
66021;BME280;52789;59.980;30.346;2022-11-20T05:57:40;101886.03;;;-5.03;89.70
66021;BME280;52789;59.980;30.346;2022-11-20T06:00:07;101897.91;;;-4.92;90.18
66021;BME280;52789;59.980;30.346;2022-11-20T06:02:36;101883.56;;;-5.07;89.71
66021;BME280;52789;59.980;30.346;2022-11-20T06:05:02;101897.91;;;-4.91;90.02
66021;BME280;52789;59.980;30.346;2022-11-20T06:07:29;101900.31;;;-4.83;90.44
66021;BME280;52789;59.980;30.346;2022-11-20T06:09:54;101888.03;;;-4.77;90.10
66021;BME280;52789;59.980;30.346;2022-11-20T06:12:20;101899.06;;;-4.69;89.63
66021;BME280;52789;59.980;30.346;2022-11-20T06:14:45;101893.06;;;-4.71;88.38
66021;BME280;52789;59.980;30.346;2022-11-20T06:17:11;101894.22;;;-4.82;88.61
66021;BME280;52789;59.980;30.346;2022-11-20T06:19:37;101889.09;;;-4.85;89.01
66021;BME280;52789;59.980;30.346;2022-11-20T06:22:02;101903.50;;;-4.72;89.79
66021;BME280;52789;59.980;30.346;2022-11-20T06:24:27;101906.88;;;-4.69;88.58
66021;BME280;52789;59.980;30.346;2022-11-20T06:26:53;101903.41;;;-4.69;89.16
66021;BME280;52789;59.980;30.346;2022-11-20T06:29:19;101887.13;;;-4.76;88.46
66021;BME280;52789;59.980;30.346;2022-11-20T06:31:44;101895.81;;;-4.77;88.52
66021;BME280;52789;59.980;30.346;2022-11-20T06:34:10;101897.53;;;-4.76;88.58
66021;BME280;52789;59.980;30.346;2022-11-20T06:36:35;101869.41;;;-4.95;88.69
66021;BME280;52789;59.980;30.346;2022-11-20T06:39:02;101907.91;;;-4.76;89.59
66021;BME280;52789;59.980;30.346;2022-11-20T06:41:28;101909.69;;;-4.78;88.46
66021;BME280;52789;59.980;30.346;2022-11-20T06:43:53;101907.91;;;-4.76;89.02
66021;BME280;52789;59.980;30.346;2022-11-20T06:46:20;101903.66;;;-4.78;88.19
66021;BME280;52789;59.980;30.346;2022-11-20T06:48:47;101897.88;;;-4.89;88.65
66021;BME280;52789;59.980;30.346;2022-11-20T06:51:13;101890.94;;;-4.89;88.33
66021;BME280;52789;59.980;30.346;2022-11-20T06:53:38;101902.88;;;-4.82;89.14
66021;BME280;52789;59.980;30.346;2022-11-20T06:56:05;101896.72;;;-4.78;88.06
66021;BME280;52789;59.980;30.346;2022-11-20T06:58:32;101899.31;;;-4.78;88.14
66021;BME280;52789;59.980;30.346;2022-11-20T07:01:23;101908.56;;;-4.68;87.44
66021;BME280;52789;59.980;30.346;2022-11-20T07:03:49;101909.47;;;-4.69;88.00
66021;BME280;52789;59.980;30.346;2022-11-20T07:06:16;101900.94;;;-4.74;87.67
66021;BME280;52789;59.980;30.346;2022-11-20T07:08:41;101908.63;;;-4.69;88.12
66021;BME280;52789;59.980;30.346;2022-11-20T07:11:07;101863.25;;;-4.90;87.72
66021;BME280;52789;59.980;30.346;2022-11-20T07:13:34;101902.53;;;-4.68;87.38
66021;BME280;52789;59.980;30.346;2022-11-20T07:16:08;101902.50;;;-4.67;88.08
66021;BME280;52789;59.980;30.346;2022-11-20T07:18:35;101911.41;;;-4.77;86.90
66021;BME280;52789;59.980;30.346;2022-11-20T07:21:06;101915.84;;;-4.80;87.05
66021;BME280;52789;59.980;30.346;2022-11-20T07:23:38;101913.28;;;-4.82;88.41
66021;BME280;52789;59.980;30.346;2022-11-20T07:26:09;101913.13;;;-4.76;88.27
66021;BME280;52789;59.980;30.346;2022-11-20T07:28:35;101902.72;;;-4.76;87.60
66021;BME280;52789;59.980;30.346;2022-11-20T07:31:01;101916.38;;;-4.68;87.80
66021;BME280;52789;59.980;30.346;2022-11-20T07:33:27;101925.00;;;-4.65;87.47
66021;BME280;52789;59.980;30.346;2022-11-20T07:35:53;101889.09;;;-4.85;87.58
66021;BME280;52789;59.980;30.346;2022-11-20T07:38:18;101928.19;;;-4.54;87.79
66021;BME280;52789;59.980;30.346;2022-11-20T07:40:44;101912.59;;;-4.54;86.95
66021;BME280;52789;59.980;30.346;2022-11-20T07:43:12;101924.69;;;-4.53;87.91
66021;BME280;52789;59.980;30.346;2022-11-20T07:45:50;101931.78;;;-4.58;87.42
66021;BME280;52789;59.980;30.346;2022-11-20T07:48:23;101900.13;;;-4.76;88.37
66021;BME280;52789;59.980;30.346;2022-11-20T07:50:49;101934.28;;;-4.55;88.16
66021;BME280;52789;59.980;30.346;2022-11-20T07:56:55;101886.50;;;-4.85;87.60
66021;BME280;52789;59.980;30.346;2022-11-20T07:59:21;101941.38;;;-4.62;87.30
66021;BME280;52789;59.980;30.346;2022-11-20T08:01:53;101947.50;;;-4.64;88.39
66021;BME280;52789;59.980;30.346;2022-11-20T08:04:20;101925.88;;;-4.67;88.24
66021;BME280;52789;59.980;30.346;2022-11-20T08:06:48;101914.66;;;-4.69;88.35
66021;BME280;52789;59.980;30.346;2022-11-20T08:09:14;101907.75;;;-4.70;87.97
66021;BME280;52789;59.980;30.346;2022-11-20T08:11:40;101929.06;;;-4.54;88.15
66021;BME280;52789;59.980;30.346;2022-11-20T08:14:27;101923.81;;;-4.52;88.02
66021;BME280;52789;59.980;30.346;2022-11-20T08:16:53;101923.97;;;-4.58;88.38
66021;BME280;52789;59.980;30.346;2022-11-20T08:19:19;101895.03;;;-4.80;88.48
66021;BME280;52789;59.980;30.346;2022-11-20T08:21:44;101925.81;;;-4.63;88.12
66021;BME280;52789;59.980;30.346;2022-11-20T08:24:10;101909.38;;;-4.65;88.84
66021;BME280;52789;59.980;30.346;2022-11-20T08:26:37;101925.78;;;-4.62;88.11
66021;BME280;52789;59.980;30.346;2022-11-20T08:29:03;101936.13;;;-4.59;88.99
66021;BME280;52789;59.980;30.346;2022-11-20T08:31:29;101938.78;;;-4.62;88.45
66021;BME280;52789;59.980;30.346;2022-11-20T08:33:56;101921.66;;;-4.71;88.25
66021;BME280;52789;59.980;30.346;2022-11-20T08:39:30;101924.00;;;-4.60;88.71
66021;BME280;52789;59.980;30.346;2022-11-20T08:41:56;101936.72;;;-4.49;88.34
66021;BME280;52789;59.980;30.346;2022-11-20T08:44:22;101934.88;;;-4.44;88.30
66021;BME280;52789;59.980;30.346;2022-11-20T08:46:47;101920.41;;;-4.54;88.45
66021;BME280;52789;59.980;30.346;2022-11-20T08:49:14;101950.47;;;-4.44;88.05
66021;BME280;52789;59.980;30.346;2022-11-20T08:51:40;101939.25;;;-4.46;88.82
66021;BME280;52789;59.980;30.346;2022-11-20T08:54:06;101931.28;;;-4.40;89.23
66021;BME280;52789;59.980;30.346;2022-11-20T08:56:33;101942.41;;;-4.33;88.41
66021;BME280;52789;59.980;30.346;2022-11-20T08:58:59;101952.66;;;-4.27;88.07
66021;BME280;52789;59.980;30.346;2022-11-20T09:01:26;101931.13;;;-4.34;87.71
66021;BME280;52789;59.980;30.346;2022-11-20T09:03:55;101944.81;;;-4.26;87.60
66021;BME280;52789;59.980;30.346;2022-11-20T09:06:20;101945.97;;;-4.38;87.57
66021;BME280;52789;59.980;30.346;2022-11-20T09:08:46;101947.69;;;-4.38;87.81
66021;BME280;52789;59.980;30.346;2022-11-20T09:11:11;101940.59;;;-4.30;87.62
66021;BME280;52789;59.980;30.346;2022-11-20T09:13:37;101951.72;;;-4.25;87.30
66021;BME280;52789;59.980;30.346;2022-11-20T09:16:07;101947.28;;;-4.21;86.75
66021;BME280;52789;59.980;30.346;2022-11-20T09:18:34;101933.38;;;-4.20;87.83
66021;BME280;52789;59.980;30.346;2022-11-20T09:21:10;101933.06;;;-4.08;87.88
66021;BME280;52789;59.980;30.346;2022-11-20T09:23:37;101923.44;;;-4.04;87.67
66021;BME280;52789;59.980;30.346;2022-11-20T09:26:13;101931.34;;;-4.09;86.57
66021;BME280;52789;59.980;30.346;2022-11-20T09:28:39;101924.56;;;-4.15;86.73
66021;BME280;52789;59.980;30.346;2022-11-20T09:31:13;101926.59;;;-4.26;86.57
66021;BME280;52789;59.980;30.346;2022-11-20T09:33:42;101928.53;;;-4.32;87.71
66021;BME280;52789;59.980;30.346;2022-11-20T09:36:08;101932.88;;;-4.33;87.39
66021;BME280;52789;59.980;30.346;2022-11-20T09:38:33;101938.94;;;-4.34;87.11
66021;BME280;52789;59.980;30.346;2022-11-20T09:41:04;101924.22;;;-4.35;86.77
66021;BME280;52789;59.980;30.346;2022-11-20T09:52:00;101916.59;;;-4.09;86.76
66021;BME280;52789;59.980;30.346;2022-11-20T09:54:31;101919.97;;;-4.05;86.26
66021;BME280;52789;59.980;30.346;2022-11-20T09:57:00;101924.97;;;-3.97;87.00
66021;BME280;52789;59.980;30.346;2022-11-20T09:59:38;101924.66;;;-3.87;85.76
66021;BME280;52789;59.980;30.346;2022-11-20T10:07:44;101917.13;;;-4.28;85.20
66021;BME280;52789;59.980;30.346;2022-11-20T10:10:40;101920.72;;;-4.34;85.99
66021;BME280;52789;59.980;30.346;2022-11-20T10:16:23;101922.28;;;-4.27;85.99
66021;BME280;52789;59.980;30.346;2022-11-20T10:27:41;101914.31;;;-4.21;86.82
66021;BME280;52789;59.980;30.346;2022-11-20T10:30:25;101898.63;;;-4.18;86.38
66021;BME280;52789;59.980;30.346;2022-11-20T10:33:03;101920.84;;;-4.04;85.91
66021;BME280;52789;59.980;30.346;2022-11-20T10:35:36;101914.06;;;-4.12;85.38
66021;BME280;52789;59.980;30.346;2022-11-20T10:38:44;101903.47;;;-4.04;86.01
66021;BME280;52789;59.980;30.346;2022-11-20T10:41:04;101864.22;;;-4.27;85.42
66021;BME280;52789;59.980;30.346;2022-11-20T10:43:53;101914.56;;;-3.97;85.14
66021;BME280;52789;59.980;30.346;2022-11-20T10:46:22;101921.47;;;-3.96;85.55
66021;BME280;52789;59.980;30.346;2022-11-20T10:48:49;101915.50;;;-4.00;85.65
66021;BME280;52789;59.980;30.346;2022-11-20T10:51:18;101928.47;;;-3.98;85.03
66021;BME280;52789;59.980;30.346;2022-11-20T11:01:46;101909.91;;;-4.17;85.38
66021;BME280;52789;59.980;30.346;2022-11-20T11:04:26;101920.41;;;-4.22;85.84
66021;BME280;52789;59.980;30.346;2022-11-20T11:09:44;101913.25;;;-4.14;86.67
66021;BME280;52789;59.980;30.346;2022-11-20T11:12:11;101918.38;;;-4.11;86.13
66021;BME280;52789;59.980;30.346;2022-11-20T11:15:04;101923.34;;;-4.01;87.32
66021;BME280;52789;59.980;30.346;2022-11-20T11:17:33;101920.50;;;-3.92;87.00
66021;BME280;52789;59.980;30.346;2022-11-20T11:20:17;101916.81;;;-3.85;86.37
66021;BME280;52789;59.980;30.346;2022-11-20T11:22:52;101913.44;;;-3.89;85.92
66021;BME280;52789;59.980;30.346;2022-11-20T11:27:49;101918.28;;;-4.08;85.63
66021;BME280;52789;59.980;30.346;2022-11-20T11:30:17;101920.97;;;-4.11;86.39
66021;BME280;52789;59.980;30.346;2022-11-20T11:32:43;101922.53;;;-4.03;86.55
66021;BME280;52789;59.980;30.346;2022-11-20T11:35:28;101894.81;;;-4.04;86.53
66021;BME280;52789;59.980;30.346;2022-11-20T11:38:11;101916.28;;;-3.96;86.05
66021;BME280;52789;59.980;30.346;2022-11-20T11:40:39;101919.59;;;-3.91;86.09
66021;BME280;52789;59.980;30.346;2022-11-20T11:43:15;101882.66;;;-4.04;86.90
66021;BME280;52789;59.980;30.346;2022-11-20T11:46:02;101915.03;;;-3.83;86.36
66021;BME280;52789;59.980;30.346;2022-11-20T11:48:29;101919.59;;;-3.91;85.22
66021;BME280;52789;59.980;30.346;2022-11-20T11:50:55;101921.44;;;-3.95;86.25
66021;BME280;52789;59.980;30.346;2022-11-20T11:53:21;101913.09;;;-4.08;86.36
66021;BME280;52789;59.980;30.346;2022-11-20T11:56:07;101903.13;;;-4.23;86.67
66021;BME280;52789;59.980;30.346;2022-11-20T12:06:01;101923.28;;;-4.31;88.55
66021;BME280;52789;59.980;30.346;2022-11-20T12:08:43;101909.50;;;-4.36;87.78
66021;BME280;52789;59.980;30.346;2022-11-20T12:14:03;101922.22;;;-4.24;88.65
66021;BME280;52789;59.980;30.346;2022-11-20T12:16:36;101910.88;;;-4.21;87.82
66021;BME280;52789;59.980;30.346;2022-11-20T12:19:02;101918.25;;;-4.04;88.25
66021;BME280;52789;59.980;30.346;2022-11-20T12:30:41;101932.97;;;-4.03;87.29
66021;BME280;52789;59.980;30.346;2022-11-20T12:33:53;101928.94;;;-4.17;87.70
66021;BME280;52789;59.980;30.346;2022-11-20T12:39:12;101920.59;;;-4.28;88.25
66021;BME280;52789;59.980;30.346;2022-11-20T12:42:20;101927.50;;;-4.27;89.18
66021;BME280;52789;59.980;30.346;2022-11-20T12:45:10;101918.81;;;-4.26;89.20
66021;BME280;52789;59.980;30.346;2022-11-20T13:08:33;101914.38;;;-4.22;89.38
66021;BME280;52789;59.980;30.346;2022-11-20T13:22:03;101935.50;;;-4.36;90.39
66021;BME280;52789;59.980;30.346;2022-11-20T13:24:30;101939.91;;;-4.38;90.57
66021;BME280;52789;59.980;30.346;2022-11-20T13:29:43;101940.41;;;-4.24;90.29
66021;BME280;52789;59.980;30.346;2022-11-20T13:32:16;101949.84;;;-4.20;90.05
66021;BME280;52789;59.980;30.346;2022-11-20T13:41:00;101971.34;;;-4.13;90.15
66021;BME280;52789;59.980;30.346;2022-11-20T13:43:49;101954.25;;;-4.22;90.62
66021;BME280;52789;59.980;30.346;2022-11-20T13:46:44;101964.34;;;-4.11;90.55
66021;BME280;52789;59.980;30.346;2022-11-20T13:49:18;101949.72;;;-4.15;89.76
66021;BME280;52789;59.980;30.346;2022-11-20T14:00:48;101975.47;;;-4.04;90.75
66021;BME280;52789;59.980;30.346;2022-11-20T14:03:22;101975.34;;;-4.00;90.50
66021;BME280;52789;59.980;30.346;2022-11-20T14:05:55;101987.25;;;-3.91;90.94
66021;BME280;52789;59.980;30.346;2022-11-20T14:11:46;101992.44;;;-3.90;89.45
66021;BME280;52789;59.980;30.346;2022-11-20T14:14:17;101994.19;;;-3.90;89.43
66021;BME280;52789;59.980;30.346;2022-11-20T14:16:43;101996.94;;;-3.96;90.18
66021;BME280;52789;59.980;30.346;2022-11-20T14:19:25;101997.84;;;-3.97;90.83
66021;BME280;52789;59.980;30.346;2022-11-20T14:21:55;101982.53;;;-4.10;90.76
66021;BME280;52789;59.980;30.346;2022-11-20T14:24:31;101996.31;;;-4.04;90.89
66021;BME280;52789;59.980;30.346;2022-11-20T14:26:56;101998.00;;;-4.03;90.83
66021;BME280;52789;59.980;30.346;2022-11-20T14:29:27;101996.31;;;-4.04;91.17
66021;BME280;52789;59.980;30.346;2022-11-20T14:31:55;101989.34;;;-4.06;91.02
66021;BME280;52789;59.980;30.346;2022-11-20T14:34:25;101998.91;;;-4.06;91.59
66021;BME280;52789;59.980;30.346;2022-11-20T14:36:56;101987.66;;;-4.07;91.50
66021;BME280;52789;59.980;30.346;2022-11-20T14:39:28;101989.06;;;-3.93;92.90
66021;BME280;52789;59.980;30.346;2022-11-20T14:41:54;101988.97;;;-3.90;92.57
66021;BME280;52789;59.980;30.346;2022-11-20T14:44:40;101999.16;;;-3.83;93.04
66021;BME280;52789;59.980;30.346;2022-11-20T14:47:11;101996.59;;;-3.84;93.04
66021;BME280;52789;59.980;30.346;2022-11-20T14:49:38;101993.25;;;-3.88;93.54
66021;BME280;52789;59.980;30.346;2022-11-20T14:52:25;101997.41;;;-3.82;93.12
66021;BME280;52789;59.980;30.346;2022-11-20T14:54:53;101995.97;;;-3.92;92.63
66021;BME280;52789;59.980;30.346;2022-11-20T14:57:33;101989.94;;;-3.94;93.68
66021;BME280;52789;59.980;30.346;2022-11-20T15:02:45;102002.72;;;-3.85;93.49
66021;BME280;52789;59.980;30.346;2022-11-20T15:05:11;101997.88;;;-3.99;93.44
66021;BME280;52789;59.980;30.346;2022-11-20T15:07:40;101998.00;;;-4.03;93.53
66021;BME280;52789;59.980;30.346;2022-11-20T15:10:20;102009.16;;;-3.98;94.30
66021;BME280;52789;59.980;30.346;2022-11-20T15:15:30;102002.06;;;-3.93;94.06
66021;BME280;52789;59.980;30.346;2022-11-20T15:17:57;101991.06;;;-4.03;94.27
66021;BME280;52789;59.980;30.346;2022-11-20T15:20:26;101998.06;;;-4.07;94.49
66021;BME280;52789;59.980;30.346;2022-11-20T15:22:52;101996.31;;;-4.04;95.31
66021;BME280;52789;59.980;30.346;2022-11-20T15:25:18;101990.97;;;-4.00;94.92
66021;BME280;52789;59.980;30.346;2022-11-20T15:27:48;101997.06;;;-4.01;95.54
66021;BME280;52789;59.980;30.346;2022-11-20T15:30:20;101991.00;;;-4.01;94.79
66021;BME280;52789;59.980;30.346;2022-11-20T15:32:46;101987.66;;;-4.07;94.33
66021;BME280;52789;59.980;30.346;2022-11-20T15:35:13;101997.16;;;-4.06;94.72
66021;BME280;52789;59.980;30.346;2022-11-20T15:37:40;101991.31;;;-4.14;95.18
66021;BME280;52789;59.980;30.346;2022-11-20T15:40:06;102004.22;;;-4.11;94.77
66021;BME280;52789;59.980;30.346;2022-11-20T15:42:33;102011.81;;;-4.01;95.10
66021;BME280;52789;59.980;30.346;2022-11-20T15:44:58;102014.31;;;-3.97;95.47
66021;BME280;52789;59.980;30.346;2022-11-20T15:47:34;102012.47;;;-3.93;94.64
66021;BME280;52789;59.980;30.346;2022-11-20T15:50:01;102015.78;;;-3.87;94.20
66021;BME280;52789;59.980;30.346;2022-11-20T15:52:28;102015.97;;;-3.94;94.45
66021;BME280;52789;59.980;30.346;2022-11-20T15:54:54;102016.91;;;-3.97;94.93
66021;BME280;52789;59.980;30.346;2022-11-20T15:57:19;102017.75;;;-3.96;95.47
66021;BME280;52789;59.980;30.346;2022-11-20T15:59:45;102016.22;;;-4.05;96.00
66021;BME280;52789;59.980;30.346;2022-11-20T16:02:11;102022.25;;;-4.01;96.25
66021;BME280;52789;59.980;30.346;2022-11-20T16:04:37;102023.94;;;-4.00;95.72
66021;BME280;52789;59.980;30.346;2022-11-20T16:07:06;102025.41;;;-3.90;95.58
66021;BME280;52789;59.980;30.346;2022-11-20T16:09:33;102023.69;;;-3.91;95.27
66021;BME280;52789;59.980;30.346;2022-11-20T16:11:59;102018.63;;;-3.96;95.72
66021;BME280;52789;59.980;30.346;2022-11-20T16:14:26;102022.88;;;-3.93;96.08
66021;BME280;52789;59.980;30.346;2022-11-20T16:17:11;102019.13;;;-3.83;95.77
66021;BME280;52789;59.980;30.346;2022-11-20T16:19:37;102024.03;;;-3.71;95.76
66021;BME280;52789;59.980;30.346;2022-11-20T16:22:03;102017.94;;;-3.70;95.31
66021;BME280;52789;59.980;30.346;2022-11-20T16:24:28;102033.38;;;-3.64;94.83
66021;BME280;52789;59.980;30.346;2022-11-20T16:26:55;102025.88;;;-3.76;95.16
66021;BME280;52789;59.980;30.346;2022-11-20T16:29:20;102033.00;;;-3.83;96.12
66021;BME280;52789;59.980;30.346;2022-11-20T16:31:46;102019.88;;;-3.78;96.02
66021;BME280;52789;59.980;30.346;2022-11-20T16:34:12;102022.97;;;-3.64;96.09
66021;BME280;52789;59.980;30.346;2022-11-20T16:36:40;102030.44;;;-3.52;95.56
66021;BME280;52789;59.980;30.346;2022-11-20T16:39:06;102031.34;;;-3.53;94.49
66021;BME280;52789;59.980;30.346;2022-11-20T16:41:33;102035.78;;;-3.56;95.26
66021;BME280;52789;59.980;30.346;2022-11-20T16:44:01;102023.75;;;-3.60;95.15
66021;BME280;52789;59.980;30.346;2022-11-20T16:46:29;102032.63;;;-3.67;95.20
66021;BME280;52789;59.980;30.346;2022-11-20T16:48:59;102028.22;;;-3.65;96.01
66021;BME280;52789;59.980;30.346;2022-11-20T16:51:26;102019.66;;;-3.69;96.08
66021;BME280;52789;59.980;30.346;2022-11-20T16:53:53;102023.75;;;-3.60;95.18
66021;BME280;52789;59.980;30.346;2022-11-20T16:56:24;102024.63;;;-3.61;95.57
66021;BME280;52789;59.980;30.346;2022-11-20T16:58:53;102038.59;;;-3.64;96.29
66021;BME280;52789;59.980;30.346;2022-11-20T17:01:20;102021.25;;;-3.65;96.30